Time;durP1;ratioP1;P1;durP2;ratioP2;P2;SDS_P1;SDS_P2;PMS_P1;PMS_P2;Temp;Humidity;BMP_temperature;BMP_pressure;BME280_temperature;BME280_humidity;BME280_pressure;Samples;Min_cycle;Max_cycle;Signal;HPM_P1;HPM_P2
2022/12/01 00:00:44;;;;;;;8.80;5.60;;;;;;;;;;4993962;28;20041;-68
2022/12/01 00:03:48;;;;;;;10.05;6.15;;;;;;;;;;4994195;28;20482;-68
2022/12/01 00:06:52;;;;;;;10.38;5.72;;;;;;;;;;4993823;28;20049;-67
2022/12/01 00:13:19;;;;;;;11.48;7.32;;;;;;;;;;4993701;28;20049;-68
2022/12/01 00:16:23;;;;;;;13.18;6.18;;;;;;;;;;4993672;28;20049;-69
2022/12/01 00:19:28;;;;;;;9.25;6.10;;;;;;;;;;4993770;28;20057;-67
2022/12/01 00:22:32;;;;;;;13.02;6.05;;;;;;;;;;4993451;28;20039;-69
2022/12/01 00:25:37;;;;;;;11.60;6.75;;;;;;;;;;4993368;28;20049;-67
2022/12/01 00:28:41;;;;;;;10.80;6.28;;;12.50;90.20;;;;;;4993825;28;20053;-68
2022/12/01 00:31:45;;;;;;;9.75;6.75;;;;;;;;;;4993089;28;20065;-69
2022/12/01 00:34:49;;;;;;;9.82;6.03;;;;;;;;;;4993455;28;20038;-68
2022/12/01 00:37:54;;;;;;;11.00;6.75;;;;;;;;;;4993595;28;20038;-69
2022/12/01 00:40:58;;;;;;;9.30;6.82;;;11.50;90.20;;;;;;4992955;28;20053;-69
2022/12/01 00:44:02;;;;;;;8.88;6.22;;;;;;;;;;4993098;28;20054;-68
2022/12/01 00:47:06;;;;;;;12.68;7.07;;;;;;;;;;4993070;28;20034;-69
2022/12/01 00:50:11;;;;;;;11.75;7.07;;;;;;;;;;4993059;28;20061;-68
2022/12/01 00:53:15;;;;;;;11.10;7.15;;;;;;;;;;4992929;28;20061;-68
2022/12/01 00:56:20;;;;;;;11.85;7.13;;;;;;;;;;4993324;28;20053;-68
2022/12/01 00:59:24;;;;;;;11.93;6.18;;;;;;;;;;4992282;28;20047;-69
2022/12/01 01:02:28;;;;;;;9.43;6.50;;;;;;;;;;4992815;28;20045;-69
2022/12/01 01:05:36;;;;;;;10.30;5.75;;;11.80;90.40;;;;;;4992911;28;20034;-69
2022/12/01 01:08:41;;;;;;;10.30;6.10;;;;;;;;;;4992819;28;20045;-69
2022/12/01 01:11:45;;;;;;;10.52;6.00;;;;;;;;;;4992664;28;20061;-69
2022/12/01 01:14:50;;;;;;;8.80;6.10;;;;;;;;;;4992563;28;20041;-69
2022/12/01 01:17:54;;;;;;;11.70;6.57;;;;;;;;;;4992420;28;20038;-68
2022/12/01 01:21:03;;;;;;;10.55;6.70;;;11.60;90.40;;;;;;4992479;28;20041;-67
2022/12/01 01:24:08;;;;;;;13.32;6.63;;;;;;;;;;4992627;28;20050;-69
2022/12/01 01:27:11;;;;;;;13.20;6.40;;;11.70;90.60;;;;;;4992579;28;20045;-67
2022/12/01 01:30:16;;;;;;;11.40;7.15;;;12.00;90.70;;;;;;4992192;28;20525;-67
2022/12/01 01:33:21;;;;;;;9.90;6.82;;;;;;;;;;4992122;28;20057;-68
2022/12/01 01:36:26;;;;;;;13.75;7.38;;;12.70;91.50;;;;;;4992465;28;20046;-69
2022/12/01 01:39:29;;;;;;;11.10;7.18;;;11.60;91.40;;;;;;4992185;28;20045;-69
2022/12/01 01:42:34;;;;;;;15.18;7.03;;;;;;;;;;4992689;28;20073;-68
2022/12/01 01:45:38;;;;;;;13.27;7.03;;;;;;;;;;4992360;28;20046;-67
2022/12/01 01:49:06;;;;;;;12.98;7.03;;;11.60;90.70;;;;;;4992098;28;20046;-67
2022/12/01 01:52:11;;;;;;;12.02;6.88;;;11.20;90.50;;;;;;4992004;28;20371;-67
2022/12/01 01:55:15;;;;;;;15.32;6.95;;;;;;;;;;4991985;28;20041;-67
2022/12/01 01:58:20;;;;;;;11.65;6.65;;;;;;;;;;4991909;28;20041;-69
2022/12/01 02:01:24;;;;;;;10.43;6.03;;;;;;;;;;4991906;28;20053;-68
2022/12/01 02:04:28;;;;;;;9.10;6.68;;;;;;;;;;4992033;28;20049;-69
2022/12/01 02:07:33;;;;;;;12.68;7.25;;;;;;;;;;4992151;28;20376;-69
2022/12/01 02:11:01;;;;;;;12.13;7.03;;;11.30;90.90;;;;;;4991039;28;20050;-68
2022/12/01 02:14:38;;;;;;;16.67;6.68;;;11.40;91.20;;;;;;4991856;28;20049;-68
2022/12/01 02:17:57;;;;;;;11.48;6.68;;;11.40;90.90;;;;;;4991760;28;20505;-69
2022/12/01 02:21:13;;;;;;;9.38;6.45;;;12.20;91.00;;;;;;4991388;28;20058;-67
2022/12/01 02:24:44;;;;;;;13.60;6.75;;;10.50;90.50;;;;;;4990913;28;20049;-69
2022/12/01 02:28:13;;;;;;;12.75;7.28;;;11.40;90.60;;;;;;4991610;28;20053;-69
2022/12/01 02:31:17;;;;;;;10.85;6.80;;;;;;;;;;4991605;28;20057;-68
2022/12/01 02:34:43;;;;;;;12.13;6.95;;;11.30;90.60;;;;;;4991330;28;20041;-68
2022/12/01 02:38:38;;;;;;;10.68;6.35;;;11.30;90.60;;;;;;4991333;28;20394;-69
2022/12/01 02:41:49;;;;;;;12.30;6.15;;;11.30;90.70;;;;;;4979454;28;20045;-68
2022/12/01 02:44:54;;;;;;;;;;;10.40;90.40;;;;;;4991891;28;20045;-69
2022/12/01 02:48:01;;;;;;;13.02;6.88;;;11.30;90.60;;;;;;4991492;28;19910;-68
2022/12/01 02:51:27;;;;;;;10.63;6.68;;;9.90;90.30;;;;;;5001856;28;20058;-68
2022/12/01 02:54:33;;;;;;;10.65;6.30;;;11.30;90.60;;;;;;4991340;28;20041;-69
2022/12/01 02:57:37;;;;;;;13.77;6.78;;;;;;;;;;4991437;28;20045;-69
2022/12/01 03:01:16;;;;;;;10.32;7.20;;;11.80;90.80;;;;;;4991078;28;20045;-68
2022/12/01 03:04:40;;;;;;;10.98;7.07;;;11.20;90.60;;;;;;4991287;28;20058;-68
2022/12/01 03:07:44;;;;;;;11.02;6.70;;;;;;;;;;4991307;28;20488;-68
2022/12/01 03:10:56;;;;;;;9.63;6.72;;;11.10;90.60;;;;;;4990833;28;20541;-68
2022/12/01 03:14:18;;;;;;;9.73;6.20;;;11.20;90.50;;;;;;4990956;28;20051;-68
2022/12/01 03:17:28;;;;;;;11.43;6.20;;;10.40;90.20;;;;;;4991473;28;20118;-67
2022/12/01 03:20:32;;;;;;;9.13;6.60;;;;;;;;;;4991468;28;20042;-68
2022/12/01 03:23:46;;;;;;;11.50;6.07;;;10.50;90.30;;;;;;4993686;28;20046;-67
2022/12/01 03:26:56;;;;;;;13.13;6.45;;;13.10;91.10;;;;;;4995010;28;20049;-67
2022/12/01 03:30:01;;;;;;;11.20;6.68;;;11.10;90.40;;;;;;4994738;28;20049;-68
2022/12/01 03:33:18;;;;;;;10.75;6.75;;;11.20;90.40;;;;;;4994343;28;20514;-68
2022/12/01 03:36:28;;;;;;;10.52;7.43;;;11.30;90.30;;;;;;4993521;28;20037;-68
2022/12/01 03:39:34;;;;;;;11.13;7.13;;;11.10;90.20;;;;;;4994654;28;20053;-68
2022/12/01 03:43:03;;;;;;;9.40;6.63;;;11.20;90.60;;;;;;4994737;28;20057;-68
2022/12/01 03:46:45;;;;;;;11.18;7.40;;;11.50;90.60;;;;;;4994635;28;20049;-68
2022/12/01 03:49:52;;;;;;;10.13;6.53;;;10.70;91.20;;;;;;4994313;28;20057;-68
2022/12/01 03:53:18;;;;;;;15.00;7.85;;;11.90;91.50;;;;;;4994100;28;20045;-68
2022/12/01 03:56:25;;;;;;;13.38;7.57;;;10.80;91.40;;;;;;4994371;28;20045;-68
2022/12/01 03:59:31;;;;;;;11.15;7.13;;;10.70;91.30;;;;;;4994394;28;20053;-68
2022/12/01 04:02:36;;;;;;;14.05;7.53;;;;;;;;;;4993936;28;20397;-69
2022/12/01 04:05:41;;;;;;;10.13;6.72;;;;;;;;;;4994202;28;20053;-68
2022/12/01 04:08:45;;;;;;;12.25;7.60;;;;;;;;;;4994398;28;20042;-68
2022/12/01 04:15:13;;;;;;;12.38;7.63;;;10.60;91.70;;;;;;4993720;28;20049;-67
2022/12/01 04:18:18;;;;;;;12.40;7.28;;;;;;;;;;4993747;28;20049;-69
2022/12/01 04:21:22;;;;;;;12.15;7.85;;;;;;;;;;4993914;28;20053;-69
2022/12/01 04:24:26;;;;;;;9.82;7.05;;;8.20;90.60;;;;;;5004132;28;20041;-67
2022/12/01 04:27:30;;;;;;;10.55;6.88;;;;;;;;;;4993737;28;20061;-67
2022/12/01 04:30:34;;;;;;;10.50;6.88;;;;;;;;;;4993362;28;20061;-67
2022/12/01 04:33:39;;;;;;;15.25;8.25;;;;;;;;;;4973852;28;20054;-68
2022/12/01 04:36:43;;;;;;;16.33;8.02;;;;;;;;;;4974250;28;20042;-69
2022/12/01 04:39:47;;;;;;;19.52;7.97;;;;;;;;;;4973781;28;20046;-68
2022/12/01 04:42:52;;;;;;;19.80;7.60;;;;;;;;;;4974217;28;20046;-68
2022/12/01 04:45:56;;;;;;;13.23;7.75;;;;;;;;;;4974066;28;20501;-68
2022/12/01 04:49:00;;;;;;;13.13;7.88;;;10.20;92.20;;;;;;4973722;28;20607;-68
2022/12/01 04:52:04;;;;;;;11.95;8.02;;;10.10;92.40;;;;;;4974019;28;20054;-67
2022/12/01 04:55:08;;;;;;;16.88;8.63;;;;;;;;;;4973725;28;20053;-67
2022/12/01 04:58:12;;;;;;;15.57;8.27;;;10.50;92.40;;;;;;4973774;28;20053;-69
2022/12/01 05:01:17;;;;;;;21.30;9.98;;;9.90;92.40;;;;;;4973787;28;20041;-69
2022/12/01 05:04:22;;;;;;;21.17;9.93;;;;;;;;;;4973440;28;20041;-69
2022/12/01 05:07:26;;;;;;;16.70;8.95;;;10.00;92.60;;;;;;4973353;28;20045;-67
2022/12/01 05:10:30;;;;;;;13.27;9.02;;;9.80;92.70;;;;;;4973451;28;20050;-68
2022/12/01 05:13:36;;;;;;;17.27;8.95;;;7.20;92.00;;;;;;4973598;28;20042;-67
2022/12/01 05:16:40;;;;;;;16.08;8.20;;;;;;;;;;4973449;28;20238;-67
2022/12/01 05:23:07;;;;;;;15.43;8.95;;;;;;;;;;4972380;28;20230;-69
2022/12/01 05:26:12;;;;;;;17.30;10.35;;;;;;;;;;4972450;28;20050;-68
2022/12/01 05:29:16;;;;;;;22.67;10.00;;;;;;;;;;4972349;28;20046;-68
2022/12/01 05:32:20;;;;;;;14.23;8.40;;;;;;;;;;4982116;28;20555;-69
2022/12/01 05:35:24;;;;;;;15.30;8.30;;;9.80;92.90;;;;;;4992708;28;20057;-68
2022/12/01 05:38:28;;;;;;;16.55;10.10;;;9.90;93.30;;;;;;4992403;28;20122;-68
2022/12/01 05:41:32;;;;;;;22.25;9.73;;;9.70;93.40;;;;;;4991941;28;20304;-69
2022/12/01 05:44:36;;;;;;;18.42;10.85;;;;;;;;;;4992104;28;20045;-68
2022/12/01 05:47:41;;;;;;;17.38;9.80;;;;;;;;;;4991966;28;20049;-68
2022/12/01 05:50:45;;;;;;;19.63;9.88;;;9.60;93.90;;;;;;4991752;28;20074;-68
2022/12/01 05:53:50;;;;;;;22.98;11.55;;;;;;;;;;4992077;28;20053;-68
2022/12/01 05:56:54;;;;;;;26.17;11.55;;;10.60;94.00;;;;;;4991066;28;20366;-68
2022/12/01 05:59:59;;;;;;;22.58;11.65;;;;;;;;;;5002453;28;20041;-68
2022/12/01 06:03:04;;;;;;;26.00;15.25;;;7.70;93.40;;;;;;4991874;28;20042;-68
2022/12/01 06:06:07;;;;;;;22.58;13.15;;;9.50;93.90;;;;;;4991798;28;20046;-69
2022/12/01 06:09:12;;;;;;;25.50;11.10;;;;;;;;;;4990889;28;20414;-68
2022/12/01 06:12:16;;;;;;;25.00;11.55;;;;;;;;;;4991555;28;20414;-68
2022/12/01 06:15:21;;;;;;;28.63;12.50;;;;;;;;;;4990048;28;20046;-68
2022/12/01 06:18:26;;;;;;;24.08;12.45;;;9.30;94.10;;;;;;4990849;28;20497;-67
2022/12/01 06:21:30;;;;;;;24.02;12.35;;;;;;;;;;4991828;28;20068;-67
2022/12/01 06:24:34;;;;;;;21.67;11.15;;;;;;;;;;4991680;28;20053;-67
2022/12/01 06:27:39;;;;;;;21.60;12.02;;;;;;;;;;4991718;28;20049;-67
2022/12/01 06:30:43;;;;;;;20.27;12.82;;;9.60;94.00;;;;;;4991378;28;20061;-67
2022/12/01 06:33:47;;;;;;;27.88;12.80;;;9.30;94.10;;;;;;4991380;28;20042;-67
2022/12/01 06:36:51;;;;;;;30.90;12.93;;;;;;;;;;4991575;28;20058;-67
2022/12/01 06:39:56;;;;;;;23.77;12.93;;;;;;;;;;4991292;28;20521;-66
2022/12/01 06:43:01;;;;;;;22.63;11.05;;;10.90;94.10;;;;;;4991608;28;20446;-66
2022/12/01 06:46:05;;;;;;;35.17;13.57;;;9.60;93.90;;;;;;4991686;28;20128;-66
2022/12/01 06:49:12;;;;;;;25.00;12.70;;;9.60;94.10;;;;;;4991388;28;20046;-66
2022/12/01 06:52:17;;;;;;;30.67;14.63;;;;;;;;;;4991480;28;20053;-66
2022/12/01 06:55:21;;;;;;;28.95;12.88;;;;;;;;;;5001681;28;20049;-66
2022/12/01 06:58:25;;;;;;;24.65;13.52;;;;;;;;;;4993475;28;20477;-66
2022/12/01 07:01:29;;;;;;;32.15;14.63;;;10.10;94.30;;;;;;4995056;28;20049;-66
2022/12/01 07:04:34;;;;;;;42.13;15.73;;;;;;;;;;4994911;28;20066;-66
2022/12/01 07:07:38;;;;;;;31.40;13.13;;;10.10;93.80;;;;;;4995128;28;20045;-66
2022/12/01 07:10:42;;;;;;;36.22;14.55;;;10.10;93.80;;;;;;4994727;28;20406;-66
2022/12/01 07:13:48;;;;;;;30.98;15.60;;;10.10;94.00;;;;;;4994849;28;20054;-67
2022/12/01 07:16:52;;;;;;;40.83;14.93;;;11.10;94.30;;;;;;4994301;28;20057;-67
2022/12/01 07:19:57;;;;;;;28.70;15.00;;;10.20;94.00;;;;;;4994828;28;20069;-66
2022/12/01 07:23:01;;;;;;;36.47;14.98;;;;;;;;;;4994688;28;20069;-65
2022/12/01 07:26:09;;;;;;;33.40;13.40;;;11.20;94.20;;;;;;4994279;28;20050;-66
2022/12/01 07:29:14;;;;;;;26.23;13.45;;;;;;;;;;4993644;28;20054;-66
2022/12/01 07:32:18;;;;;;;23.27;12.20;;;;;;;;;;4994244;28;20053;-67
2022/12/01 07:35:23;;;;;;;31.45;12.20;;;;;;;;;;4994355;28;20053;-67
2022/12/01 07:38:30;;;;;;;23.08;12.73;;;11.40;92.70;;;;;;4994184;28;20505;-67
2022/12/01 07:41:35;;;;;;;23.33;10.95;;;;;;;;;;4993713;28;20061;-65
2022/12/01 07:44:39;;;;;;;22.00;10.68;;;11.90;92.10;;;;;;4994481;28;20049;-67
2022/12/01 07:47:43;;;;;;;26.88;11.15;;;12.00;92.00;;;;;;4992901;28;20045;-66
2022/12/01 07:50:48;;;;;;;31.30;11.95;;;;;;;;;;4992673;28;20061;-70
2022/12/01 07:53:53;;;;;;;16.88;11.57;;;12.40;91.20;;;;;;4993916;28;20064;-67
2022/12/01 07:56:57;;;;;;;21.30;10.70;;;9.00;90.10;;;;;;4994086;28;20069;-67
2022/12/01 08:00:01;;;;;;;19.13;11.20;;;;;;;;;;4993688;28;20048;-67
2022/12/01 08:03:16;;;;;;;21.25;11.38;;;13.00;90.70;;;;;;4993911;28;20069;-66
2022/12/01 08:06:20;;;;;;;26.38;14.45;;;13.10;90.30;;;;;;4993799;28;20045;-67
2022/12/01 08:09:24;;;;;;;24.25;13.80;;;13.20;90.30;;;;;;4993543;28;20046;-67
2022/12/01 08:12:28;;;;;;;21.70;12.70;;;13.40;89.70;;;;;;4993769;28;20053;-68
2022/12/01 08:15:32;;;;;;;20.42;11.02;;;12.30;88.80;;;;;;4993470;28;20057;-65
2022/12/01 08:18:37;;;;;;;19.42;9.15;;;13.50;89.40;;;;;;4993694;28;20037;-68
2022/12/01 08:21:42;;;;;;;17.83;10.40;;;13.80;88.50;;;;;;4993380;28;20050;-69
2022/12/01 08:24:46;;;;;;;23.25;10.85;;;13.90;87.70;;;;;;4992717;28;20061;-67
2022/12/01 08:27:50;;;;;;;19.88;10.27;;;14.10;87.50;;;;;;4993545;28;20073;-67
2022/12/01 08:30:53;;;;;;;17.15;8.90;;;14.20;87.40;;;;;;4993589;28;20057;-67
2022/12/01 08:33:58;;;;;;;16.58;9.48;;;14.40;87.30;;;;;;4993052;28;20053;-66
2022/12/01 08:37:01;;;;;;;16.00;8.63;;;14.60;86.80;;;;;;4992230;28;20509;-65
2022/12/01 08:40:06;;;;;;;15.82;8.80;;;14.70;86.40;;;;;;4993342;28;20045;-65
2022/12/01 08:43:10;;;;;;;13.75;8.15;;;14.80;86.00;;;;;;4992994;28;20046;-67
2022/12/01 08:46:14;;;;;;;13.63;8.70;;;14.90;85.00;;;;;;4993372;28;20053;-65
2022/12/01 08:49:18;;;;;;;13.98;7.65;;;15.00;84.80;;;;;;4993112;28;20049;-65
2022/12/01 08:52:22;;;;;;;12.30;7.07;;;15.10;83.60;;;;;;4992938;28;20305;-65
2022/12/01 08:55:26;;;;;;;9.10;6.28;;;15.20;82.80;;;;;;4993267;28;20118;-65
2022/12/01 08:58:30;;;;;;;9.43;6.57;;;15.30;82.90;;;;;;4993137;28;20073;-65
2022/12/01 09:01:50;;;;;;;13.93;6.65;;;15.40;82.90;;;;;;4992359;28;20038;-65
2022/12/01 09:04:54;;;;;;;9.57;6.85;;;15.50;83.20;;;;;;4992671;28;20049;-66
2022/12/01 09:11:21;;;;;;;14.07;7.20;;;15.70;81.90;;;;;;4992257;28;20061;-66
2022/12/01 09:14:24;;;;;;;12.70;6.93;;;15.70;81.30;;;;;;4992726;28;20057;-66
2022/12/01 09:17:29;;;;;;;12.88;7.53;;;15.60;81.20;;;;;;4992596;28;20399;-66
2022/12/01 09:20:32;;;;;;;12.48;7.40;;;15.50;81.50;;;;;;4992194;28;20049;-66
2022/12/01 09:23:38;;;;;;;15.02;7.47;;;15.50;81.60;;;;;;4993232;28;20053;-66
2022/12/01 09:26:42;;;;;;;11.02;7.28;;;15.50;82.30;;;;;;4992264;28;20041;-66
2022/12/01 09:29:46;;;;;;;11.52;8.15;;;15.50;82.70;;;;;;4992432;28;20049;-66
2022/12/01 09:32:50;;;;;;;11.77;7.68;;;15.60;81.40;;;;;;5002469;28;20045;-66
2022/12/01 09:35:58;;;;;;;12.07;7.75;;;15.70;82.30;;;;;;4992046;28;20399;-66
2022/12/01 09:39:04;;;;;;;13.80;8.38;;;15.90;82.20;;;;;;4992345;28;20053;-66
2022/12/01 09:42:15;;;;;;;13.98;7.60;;;16.10;81.80;;;;;;5002804;28;20061;-66
2022/12/01 09:45:30;;;;;;;12.03;7.10;;;16.30;81.20;;;;;;4991949;28;20045;-66
2022/12/01 09:48:44;;;;;;;13.93;7.38;;;16.30;80.60;;;;;;4992198;28;20057;-66
2022/12/01 09:51:51;;;;;;;10.07;7.32;;;16.40;80.70;;;;;;4991914;28;20054;-66
2022/12/01 09:54:58;;;;;;;10.50;6.93;;;16.50;80.10;;;;;;4990830;28;20041;-67
2022/12/01 09:58:03;;;;;;;11.77;8.00;;;16.60;80.40;;;;;;4992061;28;20053;-67
2022/12/01 10:01:16;;;;;;;16.48;7.70;;;16.70;79.40;;;;;;4991601;28;20045;-66
2022/12/01 10:04:34;;;;;;;16.85;7.78;;;16.80;79.20;;;;;;4991540;28;20126;-67
2022/12/01 10:08:11;;;;;;;16.00;7.65;;;16.70;79.20;;;;;;4991506;28;20037;-64
2022/12/01 10:11:35;;;;;;;8.80;6.60;;;16.80;79.30;;;;;;4990387;28;20106;-66
2022/12/01 10:14:39;;;;;;;9.60;6.72;;;16.80;79.30;;;;;;4991720;28;20391;-64
2022/12/01 10:18:01;;;;;;;8.32;6.40;;;16.90;78.40;;;;;;4991466;28;20065;-67
2022/12/01 10:21:09;;;;;;;17.30;8.68;;;16.90;79.30;;;;;;4991316;28;20042;-66
2022/12/01 10:24:26;;;;;;;15.65;8.30;;;17.00;78.80;;;;;;4991324;28;20049;-66
2022/12/01 10:27:48;;;;;;;8.75;6.63;;;17.00;78.20;;;;;;4991543;28;20041;-66
2022/12/01 10:31:05;;;;;;;11.57;7.40;;;17.00;79.40;;;;;;4991563;28;20061;-66
2022/12/01 10:34:32;;;;;;;9.63;6.45;;;17.10;77.90;;;;;;4991305;28;20053;-67
2022/12/01 10:37:37;;;;;;;13.55;7.03;;;17.10;78.40;;;;;;4991715;28;20527;-68
2022/12/01 10:40:41;;;;;;;11.73;7.90;;;17.30;78.20;;;;;;4991751;28;20046;-66
2022/12/01 10:43:50;;;;;;;17.08;8.68;;;17.40;79.90;;;;;;4991484;28;20046;-65
2022/12/01 10:46:55;;;;;;;12.20;8.50;;;17.50;78.70;;;;;;4991285;28;20053;-64
2022/12/01 10:50:01;;;;;;;13.48;7.85;;;17.60;78.00;;;;;;5001764;28;20046;-65
2022/12/01 10:53:06;;;;;;;13.40;7.22;;;17.50;77.10;;;;;;4991175;28;20534;-65
2022/12/01 10:56:17;;;;;;;12.00;7.35;;;17.50;77.90;;;;;;4991352;28;20042;-65
2022/12/01 10:59:35;;;;;;;12.63;8.23;;;17.30;78.20;;;;;;4991079;28;20049;-65
2022/12/01 11:02:42;;;;;;;11.73;7.50;;;17.10;78.70;;;;;;4991176;28;20041;-66
2022/12/01 11:05:52;;;;;;;14.98;9.02;;;17.20;79.00;;;;;;4991659;28;20053;-65
2022/12/01 11:09:02;;;;;;;12.10;7.97;;;17.30;79.10;;;;;;4991182;28;20045;-65
2022/12/01 11:12:15;;;;;;;10.57;8.00;;;17.30;78.60;;;;;;4991021;28;20057;-65
2022/12/01 11:15:25;;;;;;;12.10;7.93;;;17.30;78.90;;;;;;4991511;28;20423;-66
2022/12/01 11:18:33;;;;;;;12.13;7.00;;;17.20;79.00;;;;;;4991248;28;20041;-66
2022/12/01 11:21:55;;;;;;;12.32;7.40;;;17.30;79.50;;;;;;4990868;28;20065;-65
2022/12/01 11:25:02;;;;;;;11.77;7.07;;;17.30;79.70;;;;;;4990827;28;20057;-65
2022/12/01 11:28:18;;;;;;;11.55;6.70;;;17.40;80.20;;;;;;4990777;28;20410;-65
2022/12/01 11:31:35;;;;;;;12.07;7.53;;;17.40;80.20;;;;;;4990292;28;20402;-63
2022/12/01 11:34:40;;;;;;;14.45;8.07;;;17.40;80.60;;;;;;4990996;28;20041;-66
2022/12/01 11:37:51;;;;;;;13.45;8.70;;;17.40;79.10;;;;;;4990957;28;20494;-64
2022/12/01 11:40:56;;;;;;;15.77;8.63;;;17.20;78.60;;;;;;4991191;28;20395;-64
2022/12/01 11:44:03;;;;;;;15.70;8.88;;;17.00;79.50;;;;;;4992648;28;20510;-64
2022/12/01 11:47:16;;;;;;;10.27;6.60;;;17.00;80.40;;;;;;4994405;28;20241;-66
2022/12/01 11:50:26;;;;;;;10.13;6.72;;;17.00;83.10;;;;;;4994406;28;20057;-64
2022/12/01 11:53:31;;;;;;;12.23;8.02;;;17.10;91.10;;;;;;4994396;28;20517;-65
2022/12/01 11:56:35;;;;;;;14.50;7.22;;;17.20;86.00;;;;;;4994229;28;20497;-64
2022/12/01 11:59:39;;;;;;;10.98;6.68;;;17.20;82.70;;;;;;4994264;28;20045;-64
2022/12/01 12:03:11;;;;;;;12.55;8.05;;;17.20;82.40;;;;;;4994475;28;20148;-64
2022/12/01 12:06:20;;;;;;;18.13;8.82;;;17.30;81.50;;;;;;4994103;28;20053;-64
2022/12/01 12:10:02;;;;;;;11.85;7.95;;;17.20;84.00;;;;;;4993853;28;20394;-65
2022/12/01 12:13:15;;;;;;;15.32;9.02;;;17.20;81.90;;;;;;4993760;28;20549;-65
2022/12/01 12:16:39;;;;;;;14.02;8.52;;;17.20;81.10;;;;;;4993634;28;20049;-65
2022/12/01 12:20:23;;;;;;;12.13;7.88;;;17.20;81.80;;;;;;4993771;28;20041;-65
2022/12/01 12:23:43;;;;;;;15.48;8.02;;;17.10;81.70;;;;;;4993490;28;20045;-65
2022/12/01 12:26:56;;;;;;;10.32;6.97;;;17.10;81.50;;;;;;4993595;28;20054;-65
2022/12/01 12:30:03;;;;;;;14.88;9.82;;;17.10;81.60;;;;;;4993159;28;20422;-65
2022/12/01 12:33:34;;;;;;;12.18;8.20;;;17.10;80.90;;;;;;4993159;28;20065;-65
2022/12/01 12:36:38;;;;;;;10.47;7.20;;;17.00;81.00;;;;;;4992988;28;20054;-65
2022/12/01 12:40:25;;;;;;;16.90;9.10;;;17.00;81.60;;;;;;4993434;28;20049;-64
2022/12/01 12:43:49;;;;;;;10.77;6.88;;;17.00;81.30;;;;;;4993057;28;20045;-64
2022/12/01 12:47:31;;;;;;;12.88;8.52;;;17.00;81.60;;;;;;4992983;28;20049;-65
2022/12/01 12:51:12;;;;;;;11.02;7.32;;;17.00;81.70;;;;;;4993267;28;20049;-66
2022/12/01 12:54:29;;;;;;;12.13;7.07;;;16.90;81.30;;;;;;4972278;28;20370;-64
2022/12/01 12:57:58;;;;;;;14.55;6.90;;;16.90;81.70;;;;;;4993220;28;20061;-65
2022/12/01 13:01:15;;;;;;;10.60;6.70;;;16.90;82.10;;;;;;4992667;28;20049;-66
2022/12/01 13:04:47;;;;;;;8.75;6.57;;;16.90;82.40;;;;;;4992681;28;20049;-65
2022/12/01 13:08:10;;;;;;;9.45;6.20;;;16.90;82.00;;;;;;4992733;28;20429;-65
2022/12/01 13:11:26;;;;;;;11.63;7.30;;;16.90;82.00;;;;;;4992494;28;20097;-65
2022/12/01 13:14:55;;;;;;;13.13;7.88;;;16.90;81.60;;;;;;4992854;28;20042;-66
2022/12/01 13:18:14;;;;;;;12.95;7.47;;;16.80;81.30;;;;;;4992782;28;20061;-65
2022/12/01 13:21:21;;;;;;;13.13;7.40;;;16.80;80.90;;;;;;5002936;28;20041;-64
2022/12/01 13:24:28;;;;;;;11.35;7.38;;;16.80;80.80;;;;;;4992507;28;20493;-64
2022/12/01 13:27:38;;;;;;;15.27;8.70;;;16.80;81.00;;;;;;4992637;28;20049;-64
2022/12/01 13:31:07;;;;;;;10.65;7.00;;;16.70;81.10;;;;;;4992172;28;20045;-64
2022/12/01 13:34:20;;;;;;;15.00;7.25;;;16.70;81.40;;;;;;4992249;28;20057;-65
2022/12/01 13:37:32;;;;;;;12.30;8.30;;;16.70;81.60;;;;;;4992261;28;20046;-65
2022/12/01 13:40:38;;;;;;;22.10;11.55;;;16.70;82.20;;;;;;4992225;28;20057;-67
2022/12/01 13:44:01;;;;;;;17.48;9.20;;;16.70;81.90;;;;;;4992406;28;20065;-68
2022/12/01 13:47:11;;;;;;;14.55;8.55;;;16.70;82.40;;;;;;4992108;28;20045;-68
2022/12/01 13:50:44;;;;;;;18.08;10.00;;;16.70;83.20;;;;;;4992160;28;20050;-67
2022/12/01 13:54:16;;;;;;;11.25;7.75;;;16.60;83.90;;;;;;4991845;28;20053;-68
2022/12/01 13:57:26;;;;;;;17.38;9.95;;;16.60;84.40;;;;;;4991986;28;20057;-67
2022/12/01 14:00:34;;;;;;;19.92;9.48;;;16.60;84.40;;;;;;4991805;28;20042;-66
2022/12/01 14:03:39;;;;;;;14.25;8.73;;;16.60;84.60;;;;;;4991631;28;20398;-67
2022/12/01 14:06:49;;;;;;;11.55;8.20;;;16.60;85.10;;;;;;4991216;28;20045;-66
2022/12/01 14:10:05;;;;;;;13.75;8.80;;;16.60;85.30;;;;;;4991213;28;20497;-68
2022/12/01 14:13:18;;;;;;;17.90;9.73;;;16.60;85.80;;;;;;4991633;28;20050;-68
2022/12/01 14:16:23;;;;;;;15.10;9.88;;;16.60;85.10;;;;;;4991391;28;20390;-68
2022/12/01 14:19:33;;;;;;;18.30;11.20;;;16.50;85.40;;;;;;4991726;28;20394;-68
2022/12/01 14:22:44;;;;;;;15.02;9.68;;;16.50;85.10;;;;;;4991455;28;20041;-66
2022/12/01 14:26:19;;;;;;;16.27;10.57;;;16.40;85.00;;;;;;4991603;28;20053;-68
2022/12/01 14:29:31;;;;;;;16.95;11.02;;;16.40;84.80;;;;;;4989369;28;20049;-68
2022/12/01 14:32:34;;;;;;;18.58;11.15;;;16.30;84.80;;;;;;5001509;28;20065;-67
2022/12/01 14:35:38;;;;;;;21.67;11.20;;;16.30;85.30;;;;;;4991502;28;20073;-68
2022/12/01 14:38:45;;;;;;;20.70;12.15;;;16.30;85.50;;;;;;4991294;28;20050;-68
2022/12/01 14:41:57;;;;;;;17.55;11.30;;;16.30;86.10;;;;;;5001733;28;20498;-68
2022/12/01 14:45:02;;;;;;;25.23;14.38;;;16.20;85.90;;;;;;4991510;28;20061;-68
2022/12/01 14:48:20;;;;;;;28.02;12.80;;;16.10;85.60;;;;;;4991247;28;20041;-68
2022/12/01 14:51:33;;;;;;;24.33;11.68;;;16.10;86.20;;;;;;4991179;28;20045;-68
2022/12/01 14:54:46;;;;;;;21.88;12.18;;;16.00;85.60;;;;;;4991394;28;20061;-68
2022/12/01 14:57:52;;;;;;;22.98;12.77;;;16.00;86.10;;;;;;4991151;28;20046;-68
2022/12/01 15:01:10;;;;;;;22.92;12.48;;;15.90;86.80;;;;;;4991162;28;20069;-68
2022/12/01 15:04:14;;;;;;;17.95;12.25;;;15.80;86.90;;;;;;4991145;28;20053;-68
2022/12/01 15:07:22;;;;;;;20.50;12.15;;;15.80;86.90;;;;;;4991156;28;20065;-68
2022/12/01 15:10:34;;;;;;;20.52;13.02;;;15.70;85.90;;;;;;4990911;28;20042;-68
2022/12/01 15:13:47;;;;;;;20.67;13.13;;;15.70;85.90;;;;;;4991349;28;20513;-66
2022/12/01 15:16:51;;;;;;;20.58;13.80;;;15.70;86.20;;;;;;4991520;28;20050;-68
2022/12/01 15:19:55;;;;;;;29.27;16.85;;;15.60;86.20;;;;;;4994037;28;20529;-68
2022/12/01 15:23:06;;;;;;;29.98;16.50;;;15.50;86.00;;;;;;4995095;28;20077;-68
2022/12/01 15:26:21;;;;;;;28.77;16.27;;;15.50;86.70;;;;;;4994723;28;20387;-68
2022/12/01 15:29:25;;;;;;;22.85;15.27;;;15.50;87.20;;;;;;5005085;28;20316;-68
2022/12/01 15:32:31;;;;;;;40.75;26.35;;;15.40;87.60;;;;;;4994480;28;20407;-67
2022/12/01 15:35:35;;;;;;;25.70;16.17;;;15.40;87.40;;;;;;4993825;28;20041;-67
2022/12/01 15:38:46;;;;;;;26.65;15.10;;;15.40;87.10;;;;;;4994396;28;20122;-67
2022/12/01 15:41:52;;;;;;;33.83;15.30;;;15.40;86.70;;;;;;4994578;28;20213;-68
2022/12/01 15:45:21;;;;;;;37.38;19.25;;;15.40;86.70;;;;;;4994214;28;20045;-67
2022/12/01 15:48:31;;;;;;;30.88;16.50;;;15.40;87.20;;;;;;4994461;28;20062;-68
2022/12/01 15:51:36;;;;;;;40.75;17.42;;;15.30;87.70;;;;;;4994196;28;20050;-68
2022/12/01 15:54:46;;;;;;;36.70;18.02;;;15.30;88.20;;;;;;4994450;28;20507;-67
2022/12/01 15:57:50;;;;;;;63.55;25.40;;;15.30;88.60;;;;;;4994058;28;20045;-68
2022/12/01 16:01:05;;;;;;;60.78;26.50;;;15.20;90.10;;;;;;4994352;28;20045;-67
2022/12/01 16:04:23;;;;;;;73.85;38.10;;;15.10;90.40;;;;;;4993840;28;20050;-68
2022/12/01 16:07:32;;;;;;;66.22;34.10;;;15.00;89.70;;;;;;4993837;28;20060;-68
2022/12/01 16:10:37;;;;;;;48.33;25.90;;;15.00;90.10;;;;;;4993961;28;20474;-68
2022/12/01 16:13:47;;;;;;;47.03;27.50;;;14.90;90.10;;;;;;4993718;28;20061;-68
2022/12/01 16:16:52;;;;;;;49.65;32.47;;;14.90;89.90;;;;;;4993461;28;20065;-68
2022/12/01 16:20:41;;;;;;;68.75;40.67;;;14.90;89.70;;;;;;4993798;28;20505;-67
2022/12/01 16:23:45;;;;;;;44.58;25.65;;;14.90;89.20;;;;;;5003507;28;20049;-66
2022/12/01 16:27:18;;;;;;;44.83;26.30;;;14.70;89.50;;;;;;4993467;28;20037;-66
2022/12/01 16:30:26;;;;;;;50.33;26.90;;;14.60;90.00;;;;;;4992218;28;20057;-66
2022/12/01 16:33:36;;;;;;;44.55;25.58;;;14.50;89.90;;;;;;4993148;28;20446;-65
2022/12/01 16:36:40;;;;;;;44.97;25.90;;;14.50;90.10;;;;;;4993312;28;20399;-66
2022/12/01 16:39:44;;;;;;;46.03;26.23;;;14.40;90.00;;;;;;4993216;28;20049;-66
2022/12/01 16:42:48;;;;;;;42.47;26.77;;;14.30;90.20;;;;;;4993501;28;20041;-66
2022/12/01 16:46:05;;;;;;;60.35;30.63;;;14.30;89.80;;;;;;4993183;28;20050;-66
2022/12/01 16:49:09;;;;;;;42.75;26.25;;;14.20;90.00;;;;;;5003036;28;20038;-66
2022/12/01 16:52:13;;;;;;;45.38;27.13;;;;;;;;;;4993174;28;20065;-66
2022/12/01 16:55:40;;;;;;;49.17;28.75;;;14.00;90.10;;;;;;4992611;28;20042;-66
2022/12/01 16:58:44;;;;;;;50.63;30.08;;;14.00;90.70;;;;;;4990466;28;20061;-65